createdAt,value
2019-02-14T00:00:17.227Z,11.35
2019-02-14T00:02:45.684Z,10.53
2019-02-14T00:05:16.597Z,10.15
2019-02-14T00:07:44.346Z,10.58
2019-02-14T00:10:12.907Z,9.43
2019-02-14T00:12:41.361Z,9.05
2019-02-14T00:15:14.197Z,8.65
2019-02-14T00:17:42.650Z,9.55
2019-02-14T00:20:11.462Z,8.20
2019-02-14T00:22:39.923Z,9.00
2019-02-14T00:25:08.502Z,9.85
2019-02-14T00:27:36.948Z,10.18
2019-02-14T00:30:07.729Z,12.30
2019-02-14T00:32:36.205Z,11.20
2019-02-14T00:35:06.095Z,10.98
2019-02-14T00:37:34.765Z,9.28
2019-02-14T00:40:04.860Z,9.25
2019-02-14T00:42:33.335Z,9.73
2019-02-14T00:45:01.835Z,9.63
2019-02-14T00:47:30.277Z,7.78
2019-02-14T00:49:58.719Z,9.65
2019-02-14T00:52:27.213Z,9.13
2019-02-14T00:54:55.661Z,7.72
2019-02-14T00:57:24.098Z,8.50
2019-02-14T00:59:52.553Z,8.50
2019-02-14T01:02:20.961Z,8.65
2019-02-14T01:04:49.407Z,8.33
2019-02-14T01:07:17.843Z,8.28
2019-02-14T01:09:46.307Z,8.58
2019-02-14T01:12:14.783Z,8.18
2019-02-14T01:14:44.777Z,8.13
2019-02-14T01:17:13.185Z,8.65
2019-02-14T01:19:41.635Z,8.35
2019-02-14T01:22:10.073Z,8.40
2019-02-14T01:24:38.519Z,8.10
2019-02-14T01:27:06.940Z,8.45
2019-02-14T01:29:35.391Z,7.90
2019-02-14T01:32:03.818Z,8.18
2019-02-14T01:34:32.245Z,6.87
2019-02-14T01:37:00.692Z,7.95
2019-02-14T01:39:29.303Z,7.53
2019-02-14T01:41:57.730Z,8.93
2019-02-14T01:44:26.150Z,8.70
2019-02-14T01:46:54.603Z,9.48
2019-02-14T01:49:23.014Z,8.75
2019-02-14T01:51:51.487Z,8.40
2019-02-14T01:54:19.947Z,8.30
2019-02-14T01:56:48.419Z,8.00
2019-02-14T01:59:16.867Z,8.55
2019-02-14T02:01:45.310Z,8.55
2019-02-14T02:04:13.806Z,7.72
2019-02-14T02:06:42.264Z,7.90
2019-02-14T02:09:10.688Z,8.38
2019-02-14T02:11:39.155Z,7.90
2019-02-14T02:14:07.658Z,7.45
2019-02-14T02:16:36.085Z,8.80
2019-02-14T02:19:04.607Z,8.33
2019-02-14T02:21:33.079Z,8.03
2019-02-14T02:24:01.647Z,9.15
2019-02-14T02:26:30.143Z,8.48
2019-02-14T02:28:58.595Z,8.23
2019-02-14T02:31:27.010Z,8.78
2019-02-14T02:33:55.449Z,9.10
2019-02-14T02:36:23.879Z,8.65
2019-02-14T02:38:52.409Z,7.85
2019-02-14T02:41:20.831Z,8.30
2019-02-14T02:43:49.282Z,8.65
2019-02-14T02:46:17.705Z,8.18
2019-02-14T02:48:46.232Z,9.08
2019-02-14T02:51:14.663Z,8.68
2019-02-14T02:53:43.110Z,8.28
2019-02-14T02:56:11.532Z,7.45
2019-02-14T02:58:39.976Z,9.70
2019-02-14T03:01:08.407Z,9.40
2019-02-14T03:03:36.850Z,8.30
2019-02-14T03:06:10.546Z,8.03
2019-02-14T03:08:35.611Z,8.80
2019-02-14T03:11:04.051Z,9.68
2019-02-14T03:13:32.483Z,9.48
2019-02-14T03:16:00.923Z,8.13
2019-02-14T03:18:29.361Z,8.75
2019-02-14T03:20:57.790Z,9.50
2019-02-14T03:23:26.243Z,8.05
2019-02-14T03:25:54.678Z,7.87
2019-02-14T03:28:23.096Z,9.10
2019-02-14T03:30:51.553Z,9.23
2019-02-14T03:33:19.972Z,7.33
2019-02-14T03:35:48.491Z,9.60
2019-02-14T03:38:16.953Z,7.90
2019-02-14T03:40:45.418Z,8.10
2019-02-14T03:43:13.841Z,9.60
2019-02-14T03:45:42.278Z,9.08
2019-02-14T03:48:10.713Z,9.35
2019-02-14T03:50:39.242Z,8.18
2019-02-14T03:53:07.646Z,9.33
2019-02-14T03:55:36.095Z,9.00
2019-02-14T03:58:04.582Z,9.28
2019-02-14T04:00:33.105Z,8.70
2019-02-14T04:03:01.596Z,9.75
2019-02-14T04:05:30.043Z,9.43
2019-02-14T04:07:58.491Z,8.98
2019-02-14T04:10:26.954Z,8.63
2019-02-14T04:12:55.443Z,10.40
2019-02-14T04:15:25.543Z,8.23
2019-02-14T04:17:53.986Z,8.23
2019-02-14T04:20:22.510Z,7.87
2019-02-14T04:22:50.968Z,7.65
2019-02-14T06:05:52.287Z,10.48
2019-02-14T06:08:20.719Z,11.90
2019-02-14T06:10:49.181Z,11.53
2019-02-14T06:13:17.757Z,12.50
2019-02-14T06:15:46.210Z,13.60
2019-02-14T06:18:14.638Z,14.03
2019-02-14T06:20:43.171Z,11.93
2019-02-14T06:23:11.587Z,12.05
2019-02-14T06:25:40.061Z,12.75
2019-02-14T06:28:08.659Z,12.03
2019-02-14T06:30:37.111Z,11.95
2019-02-14T06:33:07.101Z,12.00
2019-02-14T06:35:35.550Z,10.75
2019-02-14T06:38:03.994Z,11.35
2019-02-14T06:40:35.372Z,11.53
2019-02-14T06:43:03.875Z,10.23
2019-02-14T06:45:32.361Z,10.20
2019-02-14T06:48:00.792Z,9.30
2019-02-14T06:50:34.622Z,8.00
2019-02-14T06:52:59.416Z,10.25
2019-02-14T06:55:27.873Z,9.85
2019-02-14T06:57:56.347Z,9.58
2019-02-14T07:00:24.822Z,9.58
2019-02-14T07:02:53.306Z,9.35
2019-02-14T07:05:23.187Z,9.85
2019-02-14T07:07:51.854Z,10.82
2019-02-14T07:10:20.289Z,17.35
2019-02-14T07:12:48.744Z,17.25
2019-02-14T07:15:17.159Z,13.30
2019-02-14T07:17:45.630Z,14.55
2019-02-14T07:20:17.760Z,13.35
2019-02-14T07:22:46.272Z,12.00
2019-02-14T07:25:14.790Z,11.80
2019-02-14T07:27:43.255Z,10.43
2019-02-14T07:30:18.951Z,9.35
2019-02-14T07:32:47.417Z,11.18
2019-02-14T07:35:15.883Z,12.40
2019-02-14T07:37:44.367Z,11.40
2019-02-14T07:40:14.430Z,11.80
2019-02-14T07:42:43.212Z,12.70
2019-02-14T07:45:14.570Z,12.43
2019-02-14T07:47:43.018Z,11.57
2019-02-14T07:50:15.207Z,12.25
2019-02-14T07:52:43.735Z,11.40
2019-02-14T07:55:13.426Z,12.47
2019-02-14T07:57:41.902Z,11.45
2019-02-14T08:00:13.159Z,10.60
2019-02-14T08:02:41.626Z,10.82
2019-02-14T08:05:10.934Z,10.60
2019-02-14T08:07:39.372Z,9.53
2019-02-14T08:10:10.418Z,10.20
2019-02-14T08:12:38.859Z,10.53
2019-02-14T08:15:10.242Z,11.55
2019-02-14T08:17:38.694Z,10.08
2019-02-14T08:20:12.481Z,10.05
2019-02-14T08:22:40.904Z,9.83
2019-02-14T08:25:11.615Z,10.32
2019-02-14T08:27:40.103Z,11.33
2019-02-14T08:30:13.983Z,9.30
2019-02-14T08:32:42.420Z,9.73
2019-02-14T08:35:11.038Z,8.30
2019-02-14T08:37:45.695Z,8.45
2019-02-14T08:40:15.289Z,8.08
2019-02-14T08:42:43.722Z,7.80
2019-02-14T08:45:12.814Z,7.92
2019-02-14T08:47:41.260Z,8.80
2019-02-14T08:50:10.634Z,10.10
2019-02-14T08:52:39.076Z,9.40
2019-02-14T08:55:10.064Z,9.45
2019-02-14T08:57:38.774Z,10.80
2019-02-14T09:00:15.838Z,9.93
2019-02-14T09:02:44.343Z,9.53
2019-02-14T09:05:12.803Z,9.38
2019-02-14T09:07:41.389Z,8.83
2019-02-14T09:10:16.826Z,8.18
2019-02-14T09:12:45.275Z,7.15
2019-02-14T09:15:14.730Z,8.45
2019-02-14T09:17:43.167Z,8.73
2019-02-14T09:20:17.563Z,8.05
2019-02-14T09:22:45.976Z,7.37
2019-02-14T09:25:14.499Z,7.30
2019-02-14T09:27:42.978Z,7.97
2019-02-14T09:30:13.227Z,7.83
2019-02-14T09:32:41.976Z,7.20
2019-02-14T09:35:10.955Z,9.38
2019-02-14T09:37:39.412Z,9.43
2019-02-14T09:40:13.538Z,8.35
2019-02-14T09:42:42.128Z,9.60
2019-02-14T09:45:12.584Z,8.90
2019-02-14T09:47:41.030Z,9.70
2019-02-14T09:50:11.915Z,9.60
2019-02-14T09:52:41.501Z,9.43
2019-02-14T09:55:15.842Z,11.38
2019-02-14T09:57:44.301Z,11.80
2019-02-14T10:00:18.192Z,11.60
2019-02-14T10:02:46.707Z,11.68
2019-02-14T10:05:15.607Z,10.18
2019-02-14T10:07:44.235Z,11.33
2019-02-14T10:10:20.491Z,12.50
2019-02-14T10:12:49.016Z,12.85
2019-02-14T10:15:17.520Z,11.40
2019-02-14T10:17:46.051Z,11.20
2019-02-14T10:20:18.447Z,11.70
2019-02-14T10:22:47.074Z,11.33
2019-02-14T10:25:15.711Z,11.12
2019-02-14T10:27:44.311Z,11.30
2019-02-14T10:30:17.801Z,12.30
2019-02-14T10:32:46.420Z,12.73
2019-02-14T10:35:14.854Z,12.40
2019-02-14T10:37:43.490Z,10.70
2019-02-14T10:40:18.018Z,10.63
2019-02-14T10:42:46.510Z,9.80
2019-02-14T10:45:18.952Z,10.30
2019-02-14T10:47:47.389Z,10.47
2019-02-14T10:50:15.842Z,10.87
2019-02-14T10:52:44.283Z,10.73
2019-02-14T10:55:14.558Z,11.00
2019-02-14T10:57:43.005Z,10.13
2019-02-14T11:00:17.604Z,9.90
2019-02-14T11:02:46.690Z,10.53
2019-02-14T11:05:16.270Z,9.47
2019-02-14T11:07:44.776Z,10.50
2019-02-14T11:10:14.657Z,9.40
2019-02-14T11:12:43.226Z,10.10
2019-02-14T11:15:14.388Z,11.50
2019-02-14T11:17:42.943Z,9.97
2019-02-14T11:20:13.139Z,10.00
2019-02-14T11:22:41.569Z,9.30
2019-02-14T11:25:12.954Z,9.90
2019-02-14T11:27:41.390Z,10.13
2019-02-14T11:30:12.573Z,9.30
2019-02-14T11:32:41.088Z,10.17
2019-02-14T11:35:10.600Z,10.83
2019-02-14T11:37:39.036Z,9.53
2019-02-14T11:40:10.695Z,10.20
2019-02-14T11:42:39.292Z,9.50
2019-02-14T11:45:11.282Z,10.13
2019-02-14T11:47:39.721Z,9.33
2019-02-14T11:50:10.508Z,9.40
2019-02-14T11:52:38.948Z,9.23
2019-02-14T11:55:09.036Z,9.60
2019-02-14T11:57:37.546Z,9.87
2019-02-14T12:00:29.556Z,9.93
2019-02-14T12:02:58.147Z,10.00
2019-02-14T12:05:26.614Z,9.57
2019-02-14T12:07:55.046Z,8.67
2019-02-14T12:10:23.580Z,9.73
2019-02-14T12:12:52.007Z,9.00
2019-02-14T12:15:23.395Z,9.20
2019-02-14T12:17:52.097Z,9.00
2019-02-14T12:20:22.066Z,9.40
2019-02-14T12:22:50.448Z,8.43
2019-02-14T12:25:21.617Z,7.80
2019-02-14T12:27:50.040Z,8.87
2019-02-14T12:30:18.474Z,9.20
2019-02-14T12:32:46.897Z,10.10
2019-02-14T12:35:15.420Z,9.10
2019-02-14T12:37:43.930Z,9.73
2019-02-14T12:40:13.752Z,9.40
2019-02-14T12:42:42.199Z,9.23
2019-02-14T12:45:20.231Z,10.00
2019-02-14T12:47:43.716Z,11.23
2019-02-14T12:50:12.275Z,9.97
2019-02-14T12:52:40.726Z,9.80
2019-02-14T12:55:09.899Z,9.53
2019-02-14T12:57:38.439Z,9.10
2019-02-14T13:00:21.406Z,9.40
2019-02-14T13:02:49.954Z,9.93
2019-02-14T13:05:18.435Z,10.60
2019-02-14T13:07:46.963Z,9.13
2019-02-14T13:10:18.937Z,8.30
2019-02-14T13:12:47.461Z,8.60
2019-02-14T13:15:18.534Z,8.90
2019-02-14T13:17:46.990Z,9.73
2019-02-14T13:20:15.410Z,9.83
2019-02-14T13:22:43.868Z,8.97
2019-02-14T13:25:12.829Z,9.80
2019-02-14T13:27:41.370Z,10.13
2019-02-14T13:30:18.288Z,9.40
2019-02-14T13:32:48.270Z,10.30
2019-02-14T13:35:16.795Z,9.23
2019-02-14T13:37:45.409Z,9.23
2019-02-14T13:40:14.103Z,9.27
2019-02-14T13:42:42.530Z,9.97
2019-02-14T13:45:13.703Z,10.43
2019-02-14T13:47:42.202Z,9.80
2019-02-14T13:50:12.195Z,9.80
2019-02-14T13:52:40.715Z,9.60
2019-02-14T13:55:10.604Z,10.13
2019-02-14T13:57:39.168Z,9.30
2019-02-14T14:00:13.498Z,7.93
2019-02-14T14:02:41.997Z,7.97
2019-02-14T14:05:10.446Z,7.23
2019-02-14T14:07:40.665Z,6.67
2019-02-14T14:10:10.083Z,7.40
2019-02-14T14:12:38.516Z,7.63
2019-02-14T14:15:10.042Z,7.60
2019-02-14T14:17:38.555Z,8.87
2019-02-14T14:20:08.643Z,7.63
2019-02-14T14:22:37.313Z,7.80
2019-02-14T14:25:07.930Z,7.20
2019-02-14T14:27:36.439Z,8.03
2019-02-14T14:30:07.923Z,7.23
2019-02-14T14:32:36.426Z,6.90
2019-02-14T14:35:07.216Z,6.10
2019-02-14T14:37:36.499Z,6.80
2019-02-14T14:40:10.702Z,5.50
2019-02-14T14:42:52.714Z,7.00
2019-02-14T14:45:27.077Z,6.57
2019-02-14T14:47:55.483Z,6.93
2019-02-14T14:50:23.983Z,6.17
2019-02-14T14:52:52.442Z,6.00
2019-02-14T14:55:20.870Z,6.50
2019-02-14T14:57:49.627Z,6.57
2019-02-14T15:00:18.068Z,7.03
2019-02-14T15:02:46.534Z,6.20
2019-02-14T15:05:15.058Z,8.20
2019-02-14T15:07:43.559Z,6.57
2019-02-14T15:10:12.067Z,6.50
2019-02-14T15:12:40.514Z,7.13
2019-02-14T15:15:09.088Z,5.10
2019-02-14T15:17:38.236Z,5.57
2019-02-14T15:20:09.921Z,5.60
2019-02-14T15:22:38.376Z,6.10
2019-02-14T15:25:07.377Z,5.17
2019-02-14T15:27:35.823Z,5.90
2019-02-14T15:30:05.089Z,6.00
2019-02-14T15:32:33.522Z,6.27
2019-02-14T15:35:01.978Z,7.00
2019-02-14T15:37:30.522Z,7.03
2019-02-14T15:40:08.838Z,7.80
2019-02-14T15:42:30.795Z,8.00
2019-02-14T15:44:59.219Z,9.00
2019-02-14T15:47:27.664Z,9.43
2019-02-14T15:49:56.125Z,8.73
2019-02-14T15:52:24.557Z,9.20
2019-02-14T15:54:53.014Z,7.73
2019-02-14T15:57:21.517Z,9.87
2019-02-14T15:59:49.963Z,11.20
2019-02-14T16:02:18.442Z,8.90
2019-02-14T16:04:46.878Z,9.30
2019-02-14T16:07:17.043Z,10.13
2019-02-14T16:09:45.519Z,9.87
2019-02-14T16:12:13.958Z,9.17
2019-02-14T16:14:43.153Z,9.30
2019-02-14T16:17:13.704Z,8.63
2019-02-14T16:19:42.389Z,8.03
2019-02-14T16:22:10.840Z,9.05
2019-02-14T16:24:41.280Z,8.97
2019-02-14T16:27:09.565Z,9.93
2019-02-14T16:29:38.012Z,8.00
2019-02-14T16:32:06.452Z,8.88
2019-02-14T16:34:34.912Z,8.80
2019-02-14T16:37:03.716Z,7.85
2019-02-14T16:39:32.238Z,10.80
2019-02-14T16:42:00.676Z,41.42
2019-02-14T16:44:29.141Z,128.15
2019-02-14T16:46:57.571Z,84.17
2019-02-14T16:49:26.021Z,40.90
2019-02-14T16:51:54.652Z,14.98
2019-02-14T16:54:23.192Z,8.48
2019-02-14T16:56:51.663Z,7.40
2019-02-14T16:59:20.142Z,6.97
2019-02-14T17:01:48.561Z,6.80
2019-02-14T17:04:18.627Z,7.45
2019-02-14T17:06:47.143Z,9.03
2019-02-14T17:09:15.599Z,6.97
2019-02-14T17:11:44.108Z,7.72
2019-02-14T17:14:12.534Z,8.93
2019-02-14T17:16:41.049Z,8.18
2019-02-14T17:19:09.475Z,8.48
2019-02-14T17:21:37.995Z,9.03
2019-02-14T17:24:06.423Z,9.08
2019-02-14T17:26:36.429Z,9.15
2019-02-14T17:29:04.862Z,8.50
2019-02-14T17:31:33.318Z,9.20
2019-02-14T17:34:01.737Z,9.60
2019-02-14T17:36:30.191Z,13.72
2019-02-14T17:38:58.631Z,12.50
2019-02-14T17:41:27.112Z,15.00
2019-02-14T17:43:55.563Z,14.07
2019-02-14T17:46:24.023Z,12.93
2019-02-14T17:48:52.467Z,13.58
2019-02-14T17:51:20.917Z,14.38
2019-02-14T17:53:49.426Z,11.45
2019-02-14T17:56:17.860Z,13.48
2019-02-14T17:58:46.384Z,12.30
2019-02-14T18:01:14.859Z,11.33
2019-02-14T18:03:43.311Z,12.28
2019-02-14T18:06:11.751Z,11.88
2019-02-14T18:08:40.192Z,10.32
2019-02-14T18:11:08.611Z,10.72
2019-02-14T18:13:37.057Z,10.38
2019-02-14T18:16:05.493Z,9.40
2019-02-14T18:18:33.928Z,9.38
2019-02-14T18:21:02.354Z,8.20
2019-02-14T18:23:30.911Z,8.20
2019-02-14T18:25:59.377Z,8.30
2019-02-14T18:28:27.849Z,8.78
2019-02-14T18:30:56.281Z,8.70
2019-02-14T18:33:24.726Z,8.80
2019-02-14T18:35:53.174Z,8.30
2019-02-14T18:38:21.619Z,8.85
2019-02-14T18:40:50.063Z,10.48
2019-02-14T18:43:18.571Z,8.38
2019-02-14T18:45:47.027Z,9.68
2019-02-14T18:48:15.464Z,9.98
2019-02-14T18:50:43.928Z,9.95
2019-02-14T18:53:12.459Z,9.10
2019-02-14T18:55:40.904Z,9.38
2019-02-14T18:58:09.332Z,9.60
2019-02-14T19:00:37.779Z,9.20
2019-02-14T19:03:06.294Z,8.75
2019-02-14T19:05:34.816Z,8.48
2019-02-14T19:08:03.236Z,9.43
2019-02-14T19:10:31.699Z,10.23
2019-02-14T19:13:00.139Z,12.18
2019-02-14T19:15:28.607Z,9.65
2019-02-14T19:17:57.053Z,12.28
2019-02-14T19:20:25.575Z,13.08
2019-02-14T19:22:54.001Z,11.55
2019-02-14T19:25:22.535Z,11.48
2019-02-14T19:27:50.957Z,7.72
2019-02-14T19:30:19.566Z,9.08
2019-02-14T19:32:48.071Z,8.55
2019-02-14T19:35:22.848Z,8.53
2019-02-14T19:37:46.702Z,8.90
2019-02-14T19:40:15.153Z,9.38
2019-02-14T19:42:43.623Z,9.90
2019-02-14T19:45:12.895Z,10.65
2019-02-14T19:47:41.362Z,10.20
2019-02-14T19:50:11.530Z,10.30
2019-02-14T19:52:39.997Z,9.93
2019-02-14T19:55:11.458Z,10.98
2019-02-14T19:57:39.934Z,10.35
2019-02-14T20:00:15.538Z,11.28
2019-02-14T20:02:44.079Z,9.83
2019-02-14T20:05:12.782Z,10.50
2019-02-14T20:07:41.254Z,10.10
2019-02-14T20:10:11.971Z,10.70
2019-02-14T20:12:40.512Z,10.93
2019-02-14T20:15:19.846Z,10.85
2019-02-14T20:17:48.340Z,11.68
2019-02-14T20:20:16.792Z,11.00
2019-02-14T20:22:45.265Z,11.48
2019-02-14T20:25:28.613Z,10.65
2019-02-14T20:27:57.532Z,10.65
2019-02-14T20:30:26.029Z,9.48
2019-02-14T20:33:03.938Z,10.38
2019-02-14T20:35:24.746Z,10.43
2019-02-14T20:37:53.225Z,9.75
2019-02-14T20:40:21.732Z,10.13
2019-02-14T20:42:50.143Z,9.70
2019-02-14T20:45:18.666Z,9.38
2019-02-14T20:47:47.125Z,11.03
2019-02-14T20:50:15.742Z,9.50
2019-02-14T20:52:44.244Z,10.43
2019-02-14T20:55:15.920Z,8.38
2019-02-14T20:57:44.972Z,9.45
2019-02-14T21:00:16.999Z,9.00
2019-02-14T21:02:45.446Z,9.45
2019-02-14T21:05:14.043Z,9.70
2019-02-14T21:07:42.549Z,10.55
2019-02-14T21:10:11.239Z,11.45
2019-02-14T21:12:39.756Z,11.93
2019-02-14T21:15:09.626Z,10.05
2019-02-14T21:17:38.050Z,10.38
2019-02-14T21:20:09.738Z,9.50
2019-02-14T21:22:38.168Z,9.90
2019-02-14T21:25:08.468Z,10.03
2019-02-14T21:27:36.972Z,9.53
2019-02-14T21:30:14.513Z,11.18
2019-02-14T21:32:43.084Z,10.65
2019-02-14T21:35:11.604Z,10.10
2019-02-14T21:37:40.132Z,10.28
2019-02-14T21:40:16.041Z,11.10
2019-02-14T21:42:44.582Z,10.50
2019-02-14T21:45:15.190Z,10.70
2019-02-14T21:47:43.714Z,9.58
2019-02-14T21:50:13.270Z,12.60
2019-02-14T21:52:41.788Z,10.65
2019-02-14T21:55:14.423Z,9.43
2019-02-14T21:57:43.145Z,10.13
2019-02-14T22:00:14.945Z,9.73
2019-02-14T22:02:43.803Z,9.83
2019-02-14T22:05:12.385Z,9.08
2019-02-14T22:07:41.036Z,9.58
2019-02-14T22:10:11.800Z,9.23
2019-02-14T22:12:42.362Z,9.95
2019-02-14T22:15:16.186Z,9.28
2019-02-14T22:17:45.293Z,11.05
2019-02-14T22:20:13.994Z,9.40
2019-02-14T22:22:42.451Z,10.30
2019-02-14T22:25:11.315Z,10.28
2019-02-14T22:27:39.770Z,10.48
2019-02-14T22:30:11.968Z,10.18
2019-02-14T22:32:40.433Z,10.20
2019-02-14T22:35:09.024Z,11.33
2019-02-14T22:37:37.464Z,13.05
2019-02-14T22:40:10.945Z,10.15
2019-02-14T22:42:46.470Z,12.75
2019-02-14T22:45:13.463Z,11.38
2019-02-14T22:47:41.677Z,12.73
2019-02-14T22:50:10.815Z,11.63
2019-02-14T22:52:39.247Z,12.05
2019-02-14T22:55:14.263Z,11.93
2019-02-14T22:57:42.698Z,12.47
2019-02-14T23:00:17.108Z,10.90
2019-02-14T23:02:45.605Z,11.05
2019-02-14T23:05:14.059Z,12.53
2019-02-14T23:07:42.487Z,11.35
2019-02-14T23:10:11.031Z,11.68
2019-02-14T23:12:39.462Z,11.55
2019-02-14T23:15:08.263Z,10.48
2019-02-14T23:17:36.692Z,11.28
2019-02-14T23:20:06.574Z,11.28
2019-02-14T23:22:35.009Z,11.25
2019-02-14T23:25:04.006Z,10.60
2019-02-14T23:27:32.419Z,11.30
2019-02-14T23:30:00.886Z,11.00
2019-02-14T23:32:29.456Z,11.88
2019-02-14T23:34:59.426Z,10.45
2019-02-14T23:37:27.857Z,10.48
2019-02-14T23:39:56.294Z,11.40
2019-02-14T23:42:24.808Z,11.83
2019-02-14T23:44:53.272Z,11.55
2019-02-14T23:47:21.700Z,11.53
2019-02-14T23:49:50.131Z,11.45
2019-02-14T23:52:18.591Z,11.57
2019-02-14T23:54:47.018Z,10.45
2019-02-14T23:57:15.467Z,11.90
2019-02-14T23:59:43.906Z,10.05
